Time,TemperatureF,DewpointF,PressureIn,WindDirection,WindDirectionDegrees,WindSpeedMPH,WindSpeedGustMPH,Humidity,HourlyPrecipIn,Conditions,Clouds,dailyrainin,SoftwareType,DateUTC
2013-01-25 00:03:00,51.6,51.6,30.26,East,82,0.0,0.0,100,0.00,RA,,0.00,WeatherDisplay:10.37,2013-01-25 08:03:00,
2013-01-25 00:08:00,51.3,51.3,30.26,East,82,0.0,0.0,100,0.00,RA,,0.00,WeatherDisplay:10.37,2013-01-25 08:08:00,
2013-01-25 00:13:00,51.1,51.1,30.25,East,82,0.0,0.0,100,0.00,OVC,,0.00,WeatherDisplay:10.37,2013-01-25 08:13:00,
2013-01-25 00:18:00,51.3,51.3,30.25,East,82,0.0,0.0,100,0.00,OVC,,0.00,WeatherDisplay:10.37,2013-01-25 08:18:00,
2013-01-25 00:23:00,51.1,51.1,30.25,East,82,0.0,0.0,100,0.00,OVC,,0.00,WeatherDisplay:10.37,2013-01-25 08:23:00,
2013-01-25 00:28:00,50.9,50.9,30.25,East,82,0.0,0.0,100,0.00,OVC,,0.00,WeatherDisplay:10.37,2013-01-25 08:28:00,
2013-01-25 00:33:00,50.9,50.9,30.25,East,82,0.0,0.0,100,0.00,OVC,,0.00,WeatherDisplay:10.37,2013-01-25 08:33:00,
2013-01-25 00:38:00,50.6,50.6,30.25,East,82,0.0,0.0,100,0.00,OVC,,0.00,WeatherDisplay:10.37,2013-01-25 08:38:00,
2013-01-25 00:43:00,50.8,50.8,30.25,East,82,0.0,0.0,100,0.00,OVC,,0.00,WeatherDisplay:10.37,2013-01-25 08:43:00,
2013-01-25 00:48:00,50.7,50.7,30.26,East,82,0.0,0.0,100,0.00,OVC,,0.00,WeatherDisplay:10.37,2013-01-25 08:48:00,
2013-01-25 00:53:00,50.7,50.7,30.26,East,82,0.0,0.0,100,0.00,OVC,,0.00,WeatherDisplay:10.37,2013-01-25 08:53:00,
2013-01-25 00:58:00,50.6,50.6,30.26,East,82,0.0,0.0,100,0.00,OVC,,0.00,WeatherDisplay:10.37,2013-01-25 08:58:00,
2013-01-25 01:03:00,50.6,50.6,30.26,East,82,0.0,0.0,100,0.00,OVC,,0.00,WeatherDisplay:10.37,2013-01-25 09:03:00,
2013-01-25 01:08:00,50.6,50.6,30.26,East,82,0.0,0.0,100,0.00,OVC,,0.00,WeatherDisplay:10.37,2013-01-25 09:08:00,
2013-01-25 01:13:00,50.6,50.6,30.26,East,82,0.0,0.0,100,0.00,OVC,,0.00,WeatherDisplay:10.37,2013-01-25 09:13:00,
2013-01-25 01:18:00,50.3,50.3,30.26,East,82,0.0,0.0,100,0.00,OVC,,0.00,WeatherDisplay:10.37,2013-01-25 09:18:00,
2013-01-25 01:23:00,50.2,50.2,30.26,East,82,0.0,0.0,100,0.00,OVC,,0.00,WeatherDisplay:10.37,2013-01-25 09:23:00,
2013-01-25 01:28:00,50.4,50.4,30.26,East,82,0.0,0.0,100,0.00,OVC,,0.00,WeatherDisplay:10.37,2013-01-25 09:28:00,
2013-01-25 01:33:00,50.6,50.6,30.26,East,82,0.0,0.0,100,0.00,OVC,,0.00,WeatherDisplay:10.37,2013-01-25 09:33:00,
2013-01-25 01:38:00,50.7,50.7,30.26,East,82,0.0,0.0,100,0.00,OVC,,0.00,WeatherDisplay:10.37,2013-01-25 09:38:00,
2013-01-25 01:43:00,50.8,50.8,30.26,East,82,0.0,0.0,100,0.00,OVC,,0.00,WeatherDisplay:10.37,2013-01-25 09:43:00,
2013-01-25 01:48:00,50.7,50.7,30.26,East,82,0.0,0.0,100,0.00,FEW,,0.00,WeatherDisplay:10.37,2013-01-25 09:48:00,
2013-01-25 01:53:00,50.7,50.7,30.26,East,82,0.0,0.0,100,0.00,FEW,,0.00,WeatherDisplay:10.37,2013-01-25 09:53:00,
2013-01-25 01:58:00,50.9,50.9,30.26,East,82,0.0,0.0,100,0.00,FEW,,0.00,WeatherDisplay:10.37,2013-01-25 09:58:00,
2013-01-25 02:03:00,50.9,50.9,30.26,East,82,0.0,0.0,100,0.00,OVC,,0.00,WeatherDisplay:10.37,2013-01-25 10:03:00,
2013-01-25 02:08:00,51.1,51.1,30.26,East,82,0.0,0.0,100,0.00,OVC,,0.00,WeatherDisplay:10.37,2013-01-25 10:08:00,
2013-01-25 02:13:00,51.3,51.3,30.26,NNW,343,1.0,4.6,100,0.00,OVC,,0.00,WeatherDisplay:10.37,2013-01-25 10:13:00,
2013-01-25 02:18:00,51.4,51.4,30.26,NNW,343,0.7,2.3,100,0.00,OVC,,0.00,WeatherDisplay:10.37,2013-01-25 10:18:00,
2013-01-25 02:23:00,51.7,51.7,30.26,WNW,285,0.2,1.0,100,0.00,OVC,,0.00,WeatherDisplay:10.37,2013-01-25 10:23:00,
2013-01-25 02:28:00,51.9,51.9,30.26,WNW,285,0.0,0.0,100,0.00,OVC,,0.00,WeatherDisplay:10.37,2013-01-25 10:28:00,
2013-01-25 02:33:00,51.9,51.9,30.26,WNW,285,0.0,0.0,100,0.00,OVC,,0.00,WeatherDisplay:10.37,2013-01-25 10:33:00,
2013-01-25 02:38:00,51.9,51.9,30.26,WNW,285,0.0,0.0,100,0.00,OVC,,0.00,WeatherDisplay:10.37,2013-01-25 10:38:00,
2013-01-25 02:43:00,51.9,51.9,30.26,WNW,285,0.0,0.0,100,0.00,OVC,,0.00,WeatherDisplay:10.37,2013-01-25 10:43:00,
2013-01-25 02:48:00,51.9,51.9,30.26,WNW,285,0.0,0.0,100,0.00,OVC,,0.00,WeatherDisplay:10.37,2013-01-25 10:48:00,
2013-01-25 02:53:00,51.8,51.8,30.26,WNW,285,0.0,0.0,100,0.00,OVC,,0.00,WeatherDisplay:10.37,2013-01-25 10:53:00,
2013-01-25 02:58:00,51.9,51.9,30.26,WNW,285,0.0,0.0,100,0.00,OVC,,0.00,WeatherDisplay:10.37,2013-01-25 10:58:00,
2013-01-25 03:03:00,51.8,51.8,30.25,WNW,285,0.0,0.0,100,0.00,BKN,,0.00,WeatherDisplay:10.37,2013-01-25 11:03:00,
2013-01-25 03:08:00,51.8,51.8,30.25,WNW,285,0.0,0.0,100,0.00,BKN,,0.00,WeatherDisplay:10.37,2013-01-25 11:08:00,
2013-01-25 03:13:00,51.8,51.8,30.25,WNW,285,0.0,0.0,100,0.00,BKN,,0.00,WeatherDisplay:10.37,2013-01-25 11:13:00,
2013-01-25 03:18:00,51.8,51.8,30.25,WNW,285,0.0,0.0,100,0.00,BKN,,0.00,WeatherDisplay:10.37,2013-01-25 11:18:00,
2013-01-25 03:23:00,51.8,51.8,30.25,WNW,285,0.0,0.0,100,0.00,BKN,,0.00,WeatherDisplay:10.37,2013-01-25 11:23:00,
2013-01-25 03:28:00,51.6,51.6,30.24,WNW,285,0.0,0.0,100,0.00,BKN,,0.00,WeatherDisplay:10.37,2013-01-25 11:28:00,
2013-01-25 03:33:00,51.4,51.4,30.24,WNW,285,0.0,0.0,100,0.00,BKN,,0.00,WeatherDisplay:10.37,2013-01-25 11:33:00,
2013-01-25 03:38:00,51.3,51.3,30.24,WNW,285,0.0,0.0,100,0.00,BKN,,0.00,WeatherDisplay:10.37,2013-01-25 11:38:00,
2013-01-25 03:43:00,51.5,51.5,30.24,WNW,285,0.0,0.0,100,0.00,BKN,,0.00,WeatherDisplay:10.37,2013-01-25 11:43:00,
2013-01-25 03:48:00,51.1,51.1,30.24,WNW,285,0.0,0.0,100,0.00,OVC,,0.00,WeatherDisplay:10.37,2013-01-25 11:48:00,
2013-01-25 03:53:00,51.2,51.2,30.23,WNW,285,0.0,0.0,100,0.00,OVC,,0.00,WeatherDisplay:10.37,2013-01-25 11:53:00,
2013-01-25 03:58:00,51.0,51.0,30.24,WNW,285,0.0,0.0,100,0.00,OVC,,0.00,WeatherDisplay:10.37,2013-01-25 11:58:00,
2013-01-25 04:03:00,50.9,50.9,30.24,WNW,285,0.0,0.0,100,0.00,OVC,,0.00,WeatherDisplay:10.37,2013-01-25 12:03:00,
2013-01-25 04:08:00,50.8,50.8,30.24,WNW,285,0.0,0.0,100,0.00,OVC,,0.00,WeatherDisplay:10.37,2013-01-25 12:08:00,
2013-01-25 04:13:00,50.7,50.7,30.24,WNW,285,0.0,0.0,100,0.00,OVC,,0.00,WeatherDisplay:10.37,2013-01-25 12:13:00,
2013-01-25 04:18:00,50.6,50.6,30.24,WNW,285,0.0,0.0,100,0.00,OVC,,0.00,WeatherDisplay:10.37,2013-01-25 12:18:00,
2013-01-25 04:23:00,50.6,50.6,30.24,WNW,285,0.0,0.0,100,0.00,OVC,,0.00,WeatherDisplay:10.37,2013-01-25 12:23:00,
2013-01-25 04:28:00,50.2,50.2,30.24,WNW,285,0.0,0.0,100,0.00,OVC,,0.00,WeatherDisplay:10.37,2013-01-25 12:28:00,
2013-01-25 04:33:00,50.0,50.0,30.24,WNW,285,0.0,0.0,100,0.00,OVC,,0.00,WeatherDisplay:10.37,2013-01-25 12:33:00,
2013-01-25 04:38:00,49.4,49.4,30.24,WNW,285,0.0,0.0,100,0.00,OVC,,0.00,WeatherDisplay:10.37,2013-01-25 12:38:00,
2013-01-25 04:43:00,49.5,49.5,30.24,WNW,285,0.0,0.0,100,0.00,OVC,,0.00,WeatherDisplay:10.37,2013-01-25 12:43:00,
2013-01-25 04:48:00,49.7,49.7,30.24,WNW,285,0.0,0.0,100,0.00,OVC,,0.00,WeatherDisplay:10.37,2013-01-25 12:48:00,
2013-01-25 04:53:00,49.3,49.3,30.24,WNW,285,0.0,0.0,100,0.00,OVC,,0.00,WeatherDisplay:10.37,2013-01-25 12:53:00,
2013-01-25 04:58:00,49.0,49.0,30.25,WNW,285,0.0,0.0,100,0.00,OVC,,0.00,WeatherDisplay:10.37,2013-01-25 12:58:00,
2013-01-25 05:03:00,49.4,49.4,30.25,WNW,285,0.0,0.0,100,0.00,FEW,,0.00,WeatherDisplay:10.37,2013-01-25 13:03:00,
2013-01-25 05:08:00,49.3,49.3,30.25,WNW,285,0.0,0.0,100,0.00,FEW,,0.00,WeatherDisplay:10.37,2013-01-25 13:08:00,
2013-01-25 05:13:00,49.9,49.9,30.25,WNW,285,0.0,0.0,100,0.00,FEW,,0.00,WeatherDisplay:10.37,2013-01-25 13:13:00,
2013-01-25 05:18:00,49.4,49.4,30.25,WNW,285,0.0,0.0,100,0.00,FEW,,0.00,WeatherDisplay:10.37,2013-01-25 13:18:00,
2013-01-25 05:23:00,49.7,49.7,30.24,WNW,285,0.0,0.0,100,0.00,FEW,,0.00,WeatherDisplay:10.37,2013-01-25 13:23:00,
2013-01-25 05:28:00,49.6,49.6,30.24,WNW,285,0.0,0.0,100,0.00,FEW,,0.00,WeatherDisplay:10.37,2013-01-25 13:28:00,
2013-01-25 05:33:00,49.9,49.9,30.24,WNW,285,0.0,0.0,100,0.00,FEW,,0.00,WeatherDisplay:10.37,2013-01-25 13:33:00,
2013-01-25 05:38:00,50.0,50.0,30.23,WNW,285,0.0,0.0,100,0.00,FEW,,0.00,WeatherDisplay:10.37,2013-01-25 13:38:00,
2013-01-25 05:43:00,49.9,49.9,30.23,WNW,285,0.0,0.0,100,0.00,FEW,,0.00,WeatherDisplay:10.37,2013-01-25 13:43:00,
2013-01-25 05:48:00,49.7,49.7,30.23,WNW,285,0.0,0.0,100,0.00,OVC,,0.00,WeatherDisplay:10.37,2013-01-25 13:48:00,
2013-01-25 05:53:00,49.8,49.8,30.23,WNW,285,0.0,0.0,100,0.00,OVC,,0.00,WeatherDisplay:10.37,2013-01-25 13:53:00,
2013-01-25 05:58:00,50.2,50.2,30.23,WNW,285,0.0,0.0,100,0.00,OVC,,0.00,WeatherDisplay:10.37,2013-01-25 13:58:00,
2013-01-25 06:03:00,50.4,50.4,30.23,WNW,285,0.0,0.0,100,0.00,OVC,,0.00,WeatherDisplay:10.37,2013-01-25 14:03:00,
2013-01-25 06:08:00,50.3,50.3,30.23,WNW,285,0.0,0.0,100,0.00,OVC,,0.00,WeatherDisplay:10.37,2013-01-25 14:08:00,
2013-01-25 06:13:00,50.7,50.7,30.23,WNW,285,0.0,0.0,100,0.00,OVC,,0.00,WeatherDisplay:10.37,2013-01-25 14:13:00,
2013-01-25 06:18:00,51.1,51.1,30.23,WNW,285,0.0,0.0,100,0.00,OVC,,0.00,WeatherDisplay:10.37,2013-01-25 14:18:00,
2013-01-25 06:23:00,50.9,50.9,30.23,WNW,285,0.0,0.0,100,0.00,OVC,,0.00,WeatherDisplay:10.37,2013-01-25 14:23:00,
2013-01-25 06:28:00,50.7,50.7,30.23,WNW,285,0.0,0.0,100,0.00,OVC,,0.00,WeatherDisplay:10.37,2013-01-25 14:28:00,
2013-01-25 06:33:00,50.8,50.8,30.23,WNW,285,0.0,0.0,100,0.00,OVC,,0.00,WeatherDisplay:10.37,2013-01-25 14:33:00,
2013-01-25 06:38:00,51.0,51.0,30.23,WNW,285,0.0,0.0,100,0.00,OVC,,0.00,WeatherDisplay:10.37,2013-01-25 14:38:00,
2013-01-25 06:43:00,51.0,51.0,30.23,WNW,285,0.0,0.0,100,0.00,OVC,,0.00,WeatherDisplay:10.37,2013-01-25 14:43:00,
2013-01-25 06:48:00,50.9,50.9,30.23,WNW,285,0.0,0.0,100,0.00,OVC,,0.00,WeatherDisplay:10.37,2013-01-25 14:48:00,
2013-01-25 06:53:00,51.1,51.1,30.23,WNW,285,0.0,0.0,100,0.00,OVC,,0.00,WeatherDisplay:10.37,2013-01-25 14:53:00,
2013-01-25 06:58:00,51.2,51.2,30.23,WNW,285,0.0,0.0,100,0.00,OVC,,0.00,WeatherDisplay:10.37,2013-01-25 14:58:00,
2013-01-25 07:03:00,51.1,51.1,30.23,WNW,285,0.0,0.0,100,0.00,OVC,,0.00,WeatherDisplay:10.37,2013-01-25 15:03:00,
2013-01-25 07:08:00,50.9,50.9,30.23,WNW,285,0.0,0.0,100,0.00,OVC,,0.00,WeatherDisplay:10.37,2013-01-25 15:08:00,
2013-01-25 07:13:00,51.2,51.2,30.22,WNW,285,0.0,0.0,100,0.00,OVC,,0.00,WeatherDisplay:10.37,2013-01-25 15:13:00,
2013-01-25 07:18:00,51.1,51.1,30.22,WNW,285,0.0,0.0,100,0.00,BKN,,0.00,WeatherDisplay:10.37,2013-01-25 15:18:00,
2013-01-25 07:23:00,51.0,51.0,30.22,WNW,285,0.0,0.0,100,0.00,BKN,,0.00,WeatherDisplay:10.37,2013-01-25 15:23:00,
2013-01-25 07:28:00,51.0,51.0,30.22,WNW,285,0.0,0.0,100,0.00,BKN,,0.00,WeatherDisplay:10.37,2013-01-25 15:28:00,
2013-01-25 07:33:00,51.0,51.0,30.22,WNW,285,0.0,0.0,100,0.00,BKN,,0.00,WeatherDisplay:10.37,2013-01-25 15:33:00,
2013-01-25 07:38:00,51.0,51.0,30.22,WNW,285,0.0,0.0,100,0.00,BKN,,0.00,WeatherDisplay:10.37,2013-01-25 15:38:00,
2013-01-25 07:43:00,50.9,50.9,30.22,WNW,285,0.0,0.0,100,0.00,BKN,,0.00,WeatherDisplay:10.37,2013-01-25 15:43:00,
2013-01-25 07:48:00,50.7,50.7,30.22,WNW,285,0.0,0.0,100,0.00,BKN,,0.00,WeatherDisplay:10.37,2013-01-25 15:48:00,
2013-01-25 07:53:00,50.7,50.7,30.22,WNW,285,0.0,0.0,100,0.00,BKN,,0.00,WeatherDisplay:10.37,2013-01-25 15:53:00,
2013-01-25 07:58:00,50.7,50.7,30.22,WNW,285,0.0,0.0,100,0.00,BKN,,0.00,WeatherDisplay:10.37,2013-01-25 15:58:00,
2013-01-25 08:03:00,51.1,51.1,30.22,WNW,285,0.0,0.0,100,0.00,BKN,,0.00,WeatherDisplay:10.37,2013-01-25 16:03:00,
2013-01-25 08:08:00,51.2,51.2,30.22,WNW,285,0.0,0.0,100,0.00,BKN,,0.00,WeatherDisplay:10.37,2013-01-25 16:08:00,
2013-01-25 08:13:00,51.4,51.4,30.22,WNW,285,0.0,0.0,100,0.00,BKN,,0.00,WeatherDisplay:10.37,2013-01-25 16:13:00,
2013-01-25 08:18:00,52.1,52.1,30.23,SSW,195,0.2,1.1,100,0.00,BKN,,0.00,WeatherDisplay:10.37,2013-01-25 16:18:00,
2013-01-25 08:24:00,52.6,52.6,30.23,SSW,195,0.0,0.0,100,0.00,BKN,,0.00,WeatherDisplay:10.37,2013-01-25 16:24:00,
2013-01-25 08:29:00,52.6,52.6,30.23,SSE,164,0.0,0.0,100,0.00,BKN,,0.00,WeatherDisplay:10.37,2013-01-25 16:29:00,
2013-01-25 08:34:00,52.4,52.4,30.23,SSE,148,0.0,1.1,100,0.00,BKN,,0.00,WeatherDisplay:10.37,2013-01-25 16:34:00,
2013-01-25 08:39:00,52.4,52.4,30.23,SSE,148,0.0,0.0,100,0.00,BKN,,0.00,WeatherDisplay:10.37,2013-01-25 16:39:00,
2013-01-25 08:44:00,52.2,52.2,30.23,SSE,148,0.0,0.0,100,0.00,BKN,,0.00,WeatherDisplay:10.37,2013-01-25 16:44:00,
2013-01-25 08:49:00,52.1,52.1,30.24,East,93,0.0,0.0,100,0.00,BKN,,0.00,WeatherDisplay:10.37,2013-01-25 16:49:00,
2013-01-25 08:54:00,52.3,52.3,30.24,East,93,0.0,0.0,100,0.00,BKN,,0.00,WeatherDisplay:10.37,2013-01-25 16:54:00,
2013-01-25 08:59:00,52.7,52.7,30.24,East,93,0.0,0.0,100,0.00,BKN,,0.00,WeatherDisplay:10.37,2013-01-25 16:59:00,
2013-01-25 09:04:00,52.7,52.7,30.24,East,93,0.0,0.0,100,0.00,OVC,,0.00,WeatherDisplay:10.37,2013-01-25 17:04:00,
2013-01-25 09:09:00,52.7,52.7,30.24,East,93,0.0,0.0,100,0.00,OVC,,0.00,WeatherDisplay:10.37,2013-01-25 17:09:00,
2013-01-25 09:14:00,52.9,52.9,30.24,East,93,0.0,0.0,100,0.00,OVC,,0.00,WeatherDisplay:10.37,2013-01-25 17:14:00,
2013-01-25 09:19:00,53.0,53.0,30.23,East,93,0.0,0.0,100,0.00,OVC,,0.00,WeatherDisplay:10.37,2013-01-25 17:19:00,
2013-01-25 09:24:00,53.2,53.2,30.24,East,93,0.0,0.0,100,0.00,OVC,,0.00,WeatherDisplay:10.37,2013-01-25 17:24:00,
2013-01-25 09:29:00,54.1,54.1,30.23,East,93,0.0,0.0,100,0.00,OVC,,0.00,WeatherDisplay:10.37,2013-01-25 17:29:00,
2013-01-25 09:34:00,55.6,55.6,30.24,East,93,0.0,0.0,100,0.00,OVC,,0.00,WeatherDisplay:10.37,2013-01-25 17:34:00,
2013-01-25 09:39:00,56.3,56.3,30.23,East,86,0.0,1.1,100,0.00,OVC,,0.00,WeatherDisplay:10.37,2013-01-25 17:39:00,
2013-01-25 09:44:00,56.6,56.6,30.24,East,99,1.3,2.3,100,0.00,OVC,,0.00,WeatherDisplay:10.37,2013-01-25 17:44:00,
2013-01-25 09:49:00,57.1,57.1,30.23,ESE,121,2.7,3.5,100,0.00,OVC,,0.00,WeatherDisplay:10.37,2013-01-25 17:49:00,
2013-01-25 09:54:00,57.7,57.7,30.23,East,100,2.0,3.5,100,0.00,OVC,,0.00,WeatherDisplay:10.37,2013-01-25 17:54:00,
2013-01-25 09:59:00,57.9,57.9,30.23,ESE,117,2.9,3.8,100,0.00,OVC,,0.00,WeatherDisplay:10.37,2013-01-25 17:59:00,
2013-01-25 10:04:00,58.7,58.7,30.23,SE,136,4.0,5.3,100,0.00,OVC,,0.00,WeatherDisplay:10.37,2013-01-25 18:04:00,
2013-01-25 10:09:00,58.3,58.3,30.23,SE,128,5.5,6.9,100,0.00,OVC,,0.00,WeatherDisplay:10.37,2013-01-25 18:09:00,
2013-01-25 10:14:00,57.8,57.8,30.23,South,186,4.0,5.8,100,0.00,OVC,,0.00,WeatherDisplay:10.37,2013-01-25 18:14:00,
2013-01-25 10:19:00,57.8,57.8,30.23,ESE,119,3.4,4.6,100,0.00,SCT,,0.00,WeatherDisplay:10.37,2013-01-25 18:19:00,
2013-01-25 10:24:00,58.8,58.8,30.23,East,92,3.7,4.6,100,0.00,SCT,,0.00,WeatherDisplay:10.37,2013-01-25 18:24:00,
2013-01-25 10:29:00,59.5,59.5,30.22,East,100,5.0,8.1,100,0.00,SCT,,0.00,WeatherDisplay:10.37,2013-01-25 18:29:00,
2013-01-25 10:34:00,59.7,59.7,30.22,WSW,241,0.2,2.3,100,0.00,SCT,,0.00,WeatherDisplay:10.37,2013-01-25 18:34:00,
2013-01-25 10:39:00,60.1,60.1,30.22,SSW,192,2.2,3.5,100,0.00,SCT,,0.00,WeatherDisplay:10.37,2013-01-25 18:39:00,
2013-01-25 10:44:00,60.8,60.8,30.23,South,171,2.2,3.5,100,0.00,SCT,,0.00,WeatherDisplay:10.37,2013-01-25 18:44:00,
2013-01-25 10:49:00,60.9,60.9,30.22,West,275,1.4,2.3,100,0.00,SCT,,0.00,WeatherDisplay:10.37,2013-01-25 18:49:00,
2013-01-25 10:54:00,61.8,61.8,30.22,SE,144,2.4,3.5,100,0.00,SCT,,0.00,WeatherDisplay:10.37,2013-01-25 18:54:00,
2013-01-25 10:59:00,61.7,61.7,30.22,South,188,0.7,2.8,100,0.00,SCT,,0.00,WeatherDisplay:10.37,2013-01-25 18:59:00,
2013-01-25 11:04:00,61.9,61.9,30.22,SE,145,0.5,1.1,100,0.00,FEW,,0.00,WeatherDisplay:10.37,2013-01-25 19:04:00,
2013-01-25 11:09:00,62.4,62.4,30.22,SSE,162,2.4,3.5,100,0.00,FEW,,0.00,WeatherDisplay:10.37,2013-01-25 19:09:00,
2013-01-25 11:14:00,62.7,62.7,30.22,North,349,2.1,3.5,100,0.00,FEW,,0.00,WeatherDisplay:10.37,2013-01-25 19:14:00,
2013-01-25 11:19:00,63.8,63.8,30.22,WSW,253,2.3,3.5,100,0.00,FEW,,0.00,WeatherDisplay:10.37,2013-01-25 19:19:00,
2013-01-25 11:24:00,62.8,62.8,30.21,SW,227,2.3,3.5,100,0.00,FEW,,0.00,WeatherDisplay:10.37,2013-01-25 19:24:00,
2013-01-25 11:29:00,63.5,63.5,30.21,West,263,3.4,4.6,100,0.00,FEW,,0.00,WeatherDisplay:10.37,2013-01-25 19:29:00,
2013-01-25 11:34:00,64.0,64.0,30.21,SW,233,2.2,3.5,100,0.00,FEW,,0.00,WeatherDisplay:10.37,2013-01-25 19:34:00,
2013-01-25 11:39:00,64.3,64.3,30.20,SSW,206,2.3,3.5,100,0.00,FEW,,0.00,WeatherDisplay:10.37,2013-01-25 19:39:00,
2013-01-25 11:44:00,64.9,64.9,30.20,WSW,253,1.6,2.7,100,0.00,FEW,,0.00,WeatherDisplay:10.37,2013-01-25 19:44:00,
2013-01-25 11:49:00,65.9,65.9,30.20,SW,232,1.1,2.3,100,0.00,FEW,,0.00,WeatherDisplay:10.37,2013-01-25 19:49:00,
2013-01-25 11:54:00,65.1,65.1,30.20,SE,144,4.5,6.9,100,0.00,FEW,,0.00,WeatherDisplay:10.37,2013-01-25 19:54:00,
2013-01-25 11:59:00,65.3,65.3,30.20,ESE,107,2.7,3.5,100,0.00,FEW,,0.00,WeatherDisplay:10.37,2013-01-25 19:59:00,
2013-01-25 12:04:00,65.5,64.3,30.20,SW,223,1.8,4.6,96,0.00,SCT,,0.00,WeatherDisplay:10.37,2013-01-25 20:04:00,
2013-01-25 12:09:00,65.3,64.1,30.19,West,261,1.8,3.5,96,0.00,SCT,,0.00,WeatherDisplay:10.37,2013-01-25 20:09:00,
2013-01-25 12:14:00,65.2,64.0,30.19,SSE,152,1.9,4.6,96,0.00,SCT,,0.00,WeatherDisplay:10.37,2013-01-25 20:14:00,
2013-01-25 12:19:00,66.3,65.1,30.18,South,186,0.6,2.8,96,0.00,SCT,,0.00,WeatherDisplay:10.37,2013-01-25 20:19:00,
2013-01-25 12:24:00,66.0,64.8,30.18,SW,222,1.3,3.5,96,0.00,SCT,,0.00,WeatherDisplay:10.37,2013-01-25 20:24:00,
2013-01-25 12:29:00,66.2,65.0,30.17,ESE,102,2.6,3.5,96,0.00,SCT,,0.00,WeatherDisplay:10.37,2013-01-25 20:29:00,
2013-01-25 12:34:00,67.1,65.9,30.17,SW,236,2.0,4.6,96,0.00,SCT,,0.00,WeatherDisplay:10.37,2013-01-25 20:34:00,
2013-01-25 12:39:00,66.5,65.3,30.17,SSE,161,3.9,5.8,96,0.00,SCT,,0.00,WeatherDisplay:10.37,2013-01-25 20:39:00,
2013-01-25 12:44:00,66.3,65.1,30.17,NW,304,0.9,2.3,96,0.00,SCT,,0.00,WeatherDisplay:10.37,2013-01-25 20:44:00,
2013-01-25 12:49:00,66.9,65.7,30.16,SSE,154,4.4,6.9,96,0.00,SCT,,0.00,WeatherDisplay:10.37,2013-01-25 20:49:00,
2013-01-25 12:54:00,67.3,66.1,30.16,SSE,165,3.0,5.8,96,0.00,SCT,,0.00,WeatherDisplay:10.37,2013-01-25 20:54:00,
2013-01-25 12:59:00,67.1,65.9,30.16,WSW,256,0.7,2.3,96,0.00,SCT,,0.00,WeatherDisplay:10.37,2013-01-25 20:59:00,
2013-01-25 13:04:00,67.4,62.7,30.16,SE,138,3.4,6.9,85,0.00,CLR,,0.00,WeatherDisplay:10.37,2013-01-25 21:04:00,
2013-01-25 13:09:00,68.5,63.8,30.16,WSW,247,2.1,4.7,85,0.00,CLR,,0.00,WeatherDisplay:10.37,2013-01-25 21:09:00,
2013-01-25 13:14:00,68.4,63.7,30.16,SE,134,2.2,3.5,85,0.00,CLR,,0.00,WeatherDisplay:10.37,2013-01-25 21:14:00,
2013-01-25 13:19:00,68.4,63.7,30.15,SSE,162,2.8,3.6,85,0.00,CLR,,0.00,WeatherDisplay:10.37,2013-01-25 21:19:00,
2013-01-25 13:24:00,67.7,63.0,30.15,NW,311,2.5,4.6,85,0.00,CLR,,0.00,WeatherDisplay:10.37,2013-01-25 21:24:00,
2013-01-25 13:29:00,67.6,62.9,30.15,East,95,5.9,6.9,85,0.00,CLR,,0.00,WeatherDisplay:10.37,2013-01-25 21:29:00,
2013-01-25 13:34:00,68.2,63.5,30.15,ESE,121,4.1,6.9,85,0.00,CLR,,0.00,WeatherDisplay:10.37,2013-01-25 21:34:00,
2013-01-25 13:39:00,68.4,63.7,30.15,SSE,162,1.4,4.6,85,0.00,CLR,,0.00,WeatherDisplay:10.37,2013-01-25 21:39:00,
2013-01-25 13:44:00,67.9,63.2,30.15,East,86,0.8,2.9,85,0.00,CLR,,0.00,WeatherDisplay:10.37,2013-01-25 21:44:00,
2013-01-25 13:49:00,67.2,62.5,30.14,South,171,2.8,4.6,85,0.00,CLR,,0.00,WeatherDisplay:10.37,2013-01-25 21:49:00,
2013-01-25 13:54:00,67.2,62.5,30.14,SE,133,4.8,6.9,85,0.00,CLR,,0.00,WeatherDisplay:10.37,2013-01-25 21:54:00,
2013-01-25 13:59:00,67.8,63.1,30.14,WNW,298,3.7,5.8,85,0.00,CLR,,0.00,WeatherDisplay:10.37,2013-01-25 21:59:00,
2013-01-25 14:04:00,68.4,63.7,30.14,WSW,239,2.2,3.5,85,0.00,CLR,,0.00,WeatherDisplay:10.37,2013-01-25 22:04:00,
2013-01-25 14:09:00,68.3,63.6,30.14,SSW,195,1.1,3.5,85,0.00,CLR,,0.00,WeatherDisplay:10.37,2013-01-25 22:09:00,
2013-01-25 14:14:00,68.3,63.6,30.14,SE,124,0.5,2.3,85,0.00,CLR,,0.00,WeatherDisplay:10.37,2013-01-25 22:14:00,
2013-01-25 14:19:00,67.4,60.3,30.14,South,175,3.3,4.6,78,0.00,CLR,,0.00,WeatherDisplay:10.37,2013-01-25 22:19:00,
2013-01-25 14:24:00,68.4,61.3,30.14,West,278,1.0,2.6,78,0.00,CLR,,0.00,WeatherDisplay:10.37,2013-01-25 22:24:00,
2013-01-25 14:29:00,69.2,62.0,30.14,South,184,1.9,5.9,78,0.00,CLR,,0.00,WeatherDisplay:10.37,2013-01-25 22:29:00,
2013-01-25 14:34:00,69.4,62.2,30.14,WSW,246,2.1,3.5,78,0.00,CLR,,0.00,WeatherDisplay:10.37,2013-01-25 22:34:00,
2013-01-25 14:39:00,68.7,61.6,30.13,SW,219,2.6,4.6,78,0.00,CLR,,0.00,WeatherDisplay:10.37,2013-01-25 22:39:00,
2013-01-25 14:44:00,69.0,61.9,30.13,SSW,203,1.3,4.6,78,0.00,CLR,,0.00,WeatherDisplay:10.37,2013-01-25 22:44:00,
2013-01-25 14:49:00,68.2,61.1,30.13,WNW,282,1.4,2.3,78,0.00,CLR,,0.00,WeatherDisplay:10.37,2013-01-25 22:49:00,
2013-01-25 14:54:00,68.3,61.2,30.13,SSW,195,1.6,2.3,78,0.00,CLR,,0.00,WeatherDisplay:10.37,2013-01-25 22:54:00,
2013-01-25 14:59:00,67.9,60.8,30.13,SE,138,2.5,4.6,78,0.00,CLR,,0.00,WeatherDisplay:10.37,2013-01-25 22:59:00,
2013-01-25 15:04:00,67.8,59.6,30.13,SW,230,4.2,5.8,75,0.00,FEW,,0.00,WeatherDisplay:10.37,2013-01-25 23:04:00,
2013-01-25 15:09:00,67.7,59.5,30.12,SSW,213,2.6,4.1,75,0.00,FEW,,0.00,WeatherDisplay:10.37,2013-01-25 23:09:00,
2013-01-25 15:14:00,67.4,59.2,30.12,WSW,253,3.7,4.6,75,0.00,FEW,,0.00,WeatherDisplay:10.37,2013-01-25 23:14:00,
2013-01-25 15:19:00,67.7,59.5,30.12,SSW,205,2.2,4.6,75,0.00,FEW,,0.00,WeatherDisplay:10.37,2013-01-25 23:19:00,
2013-01-25 15:24:00,67.7,59.5,30.12,SW,217,0.7,2.3,75,0.00,FEW,,0.00,WeatherDisplay:10.37,2013-01-25 23:24:00,
2013-01-25 15:29:00,67.4,59.2,30.12,WSW,250,3.5,5.8,75,0.00,FEW,,0.00,WeatherDisplay:10.37,2013-01-25 23:29:00,
2013-01-25 15:34:00,67.8,59.6,30.11,West,260,4.8,6.9,75,0.00,FEW,,0.00,WeatherDisplay:10.37,2013-01-25 23:34:00,
2013-01-25 15:39:00,67.8,59.6,30.11,WSW,244,3.7,5.8,75,0.00,FEW,,0.00,WeatherDisplay:10.37,2013-01-25 23:39:00,
2013-01-25 15:44:00,67.6,59.4,30.11,WNW,282,4.5,6.9,75,0.00,FEW,,0.00,WeatherDisplay:10.37,2013-01-25 23:44:00,
2013-01-25 15:49:00,67.1,58.9,30.11,SW,222,2.6,5.0,75,0.00,FEW,,0.00,WeatherDisplay:10.37,2013-01-25 23:49:00,
2013-01-25 15:54:00,67.3,59.1,30.11,SW,232,3.9,5.8,75,0.00,FEW,,0.00,WeatherDisplay:10.37,2013-01-25 23:54:00,
2013-01-25 15:59:00,66.7,58.5,30.11,SW,215,2.8,6.9,75,0.00,FEW,,0.00,WeatherDisplay:10.37,2013-01-25 23:59:00,
2013-01-25 16:04:00,66.7,58.5,30.11,SW,216,3.7,6.9,75,0.00,FEW,,0.00,WeatherDisplay:10.37,2013-01-26 00:04:00,
2013-01-25 16:09:00,66.4,58.2,30.11,South,174,3.7,4.6,75,0.00,FEW,,0.00,WeatherDisplay:10.37,2013-01-26 00:09:00,
2013-01-25 16:14:00,66.3,58.1,30.10,SSW,210,3.5,5.8,75,0.00,FEW,,0.00,WeatherDisplay:10.37,2013-01-26 00:14:00,
2013-01-25 16:19:00,66.0,58.6,30.10,South,182,2.7,4.6,77,0.00,SCT,,0.00,WeatherDisplay:10.37,2013-01-26 00:19:00,
2013-01-25 16:24:00,65.7,58.3,30.10,South,182,2.7,4.6,77,0.00,SCT,,0.00,WeatherDisplay:10.37,2013-01-26 00:24:00,
2013-01-25 16:29:00,65.6,58.2,30.10,WSW,239,2.0,4.6,77,0.00,SCT,,0.00,WeatherDisplay:10.37,2013-01-26 00:29:00,
2013-01-25 16:34:00,65.3,57.9,30.10,SSW,198,2.2,3.5,77,0.00,SCT,,0.00,WeatherDisplay:10.37,2013-01-26 00:34:00,
2013-01-25 16:39:00,65.2,57.8,30.10,SSW,200,1.7,3.5,77,0.00,SCT,,0.00,WeatherDisplay:10.37,2013-01-26 00:39:00,
2013-01-25 16:44:00,64.9,57.5,30.09,SE,128,1.1,2.3,77,0.00,SCT,,0.00,WeatherDisplay:10.37,2013-01-26 00:44:00,
2013-01-25 16:49:00,64.6,57.2,30.09,SSW,195,0.9,2.4,77,0.00,SCT,,0.00,WeatherDisplay:10.37,2013-01-26 00:49:00,
2013-01-25 16:54:00,64.3,56.9,30.09,SE,137,0.6,2.4,77,0.00,SCT,,0.00,WeatherDisplay:10.37,2013-01-26 00:54:00,
2013-01-25 16:59:00,64.2,56.8,30.09,SSE,164,1.7,2.3,77,0.00,SCT,,0.00,WeatherDisplay:10.37,2013-01-26 00:59:00,
2013-01-25 17:04:00,64.0,56.6,30.09,ENE,65,1.8,2.3,77,0.00,SCT,,0.00,WeatherDisplay:10.37,2013-01-26 01:04:00,
2013-01-25 17:09:00,63.9,56.5,30.09,ESE,107,2.0,3.4,77,0.00,SCT,,0.00,WeatherDisplay:10.37,2013-01-26 01:09:00,
2013-01-25 17:14:00,63.6,56.3,30.09,ENE,64,0.7,2.3,77,0.00,SCT,,0.00,WeatherDisplay:10.37,2013-01-26 01:14:00,
2013-01-25 17:19:00,63.3,61.2,30.09,SE,133,3.2,4.6,93,0.00,SCT,,0.00,WeatherDisplay:10.37,2013-01-26 01:19:00,
2013-01-25 17:24:00,63.0,60.9,30.09,SSE,165,2.2,3.6,93,0.00,SCT,,0.00,WeatherDisplay:10.37,2013-01-26 01:24:00,
2013-01-25 17:29:00,62.6,60.5,30.10,ESE,109,2.4,3.5,93,0.00,SCT,,0.00,WeatherDisplay:10.37,2013-01-26 01:29:00,
2013-01-25 17:34:00,62.3,60.2,30.10,East,95,3.2,4.6,93,0.00,SCT,,0.00,WeatherDisplay:10.37,2013-01-26 01:34:00,
2013-01-25 17:39:00,61.8,59.8,30.10,SE,131,5.1,6.9,93,0.00,SCT,,0.00,WeatherDisplay:10.37,2013-01-26 01:39:00,
2013-01-25 17:44:00,61.6,59.6,30.09,ESE,109,2.4,3.5,93,0.00,SCT,,0.00,WeatherDisplay:10.37,2013-01-26 01:44:00,
2013-01-25 17:49:00,61.7,61.7,30.09,East,90,2.3,3.3,100,0.00,SCT,,0.00,WeatherDisplay:10.37,2013-01-26 01:49:00,
2013-01-25 17:54:00,61.7,61.7,30.09,East,80,1.7,2.8,100,0.00,SCT,,0.00,WeatherDisplay:10.37,2013-01-26 01:54:00,
2013-01-25 17:59:00,61.6,61.6,30.09,East,93,2.3,3.5,100,0.00,SCT,,0.00,WeatherDisplay:10.37,2013-01-26 01:59:00,
2013-01-25 18:04:00,61.7,61.7,30.09,East,82,0.0,0.0,100,0.00,SCT,,0.00,WeatherDisplay:10.37,2013-01-26 02:04:00,
2013-01-25 18:09:00,61.9,61.9,30.09,East,82,0.0,0.0,100,0.00,SCT,,0.00,WeatherDisplay:10.37,2013-01-26 02:09:00,
2013-01-25 18:14:00,61.7,61.7,30.09,East,82,0.0,0.0,100,0.00,SCT,,0.00,WeatherDisplay:10.37,2013-01-26 02:14:00,
2013-01-25 18:19:00,61.8,61.2,30.09,East,82,0.0,0.0,98,0.00,BKN,,0.00,WeatherDisplay:10.37,2013-01-26 02:19:00,
2013-01-25 18:24:00,61.9,61.3,30.09,East,82,0.0,0.0,98,0.00,BKN,,0.00,WeatherDisplay:10.37,2013-01-26 02:24:00,
2013-01-25 18:29:00,61.1,60.5,30.10,East,82,0.0,0.0,98,0.00,BKN,,0.00,WeatherDisplay:10.37,2013-01-26 02:29:00,
2013-01-25 18:34:00,60.4,60.4,30.09,East,82,0.0,0.0,100,0.00,OVC,,0.00,WeatherDisplay:10.37,2013-01-26 02:34:00,
2013-01-25 18:39:00,60.0,60.0,30.09,East,82,0.0,0.0,100,0.00,OVC,,0.00,WeatherDisplay:10.37,2013-01-26 02:39:00,
2013-01-25 18:44:00,60.4,60.4,30.09,West,278,0.0,0.0,100,0.00,OVC,,0.00,WeatherDisplay:10.37,2013-01-26 02:44:00,
2013-01-25 18:49:00,60.3,60.3,30.09,West,278,0.0,0.0,100,0.00,OVC,,0.00,WeatherDisplay:10.37,2013-01-26 02:49:00,
2013-01-25 18:54:00,60.0,60.0,30.09,SSW,193,0.0,0.0,100,0.00,OVC,,0.00,WeatherDisplay:10.37,2013-01-26 02:54:00,
2013-01-25 18:59:00,60.4,60.4,30.10,SSW,193,0.0,0.0,100,0.00,OVC,,0.00,WeatherDisplay:10.37,2013-01-26 02:59:00,
2013-01-25 19:04:00,60.1,60.1,30.10,SSW,193,0.0,0.0,100,0.00,OVC,,0.00,WeatherDisplay:10.37,2013-01-26 03:04:00,
2013-01-25 19:09:00,59.5,59.5,30.10,SSW,193,0.0,0.0,100,0.00,OVC,,0.00,WeatherDisplay:10.37,2013-01-26 03:09:00,
2013-01-25 19:14:00,59.1,59.1,30.09,SSW,193,0.0,0.0,100,0.00,OVC,,0.00,WeatherDisplay:10.37,2013-01-26 03:14:00,
2013-01-25 19:19:00,59.0,59.0,30.10,WNW,284,0.6,1.1,100,0.00,OVC,,0.00,WeatherDisplay:10.37,2013-01-26 03:19:00,
2013-01-25 19:24:00,58.8,58.8,30.09,West,281,0.2,1.1,100,0.00,OVC,,0.00,WeatherDisplay:10.37,2013-01-26 03:24:00,
2013-01-25 19:29:00,58.8,58.8,30.09,West,274,0.0,0.0,100,0.00,OVC,,0.00,WeatherDisplay:10.37,2013-01-26 03:29:00,
2013-01-25 19:34:00,58.4,58.4,30.09,West,274,0.0,0.0,100,0.00,OVC,,0.00,WeatherDisplay:10.37,2013-01-26 03:34:00,
2013-01-25 19:39:00,57.9,57.9,30.09,West,274,0.0,0.0,100,0.00,OVC,,0.00,WeatherDisplay:10.37,2013-01-26 03:39:00,
2013-01-25 19:44:00,57.8,57.8,30.09,West,274,0.0,0.0,100,0.00,OVC,,0.00,WeatherDisplay:10.37,2013-01-26 03:44:00,
2013-01-25 19:49:00,57.4,57.4,30.09,West,274,0.0,0.0,100,0.00,OVC,,0.00,WeatherDisplay:10.37,2013-01-26 03:49:00,
2013-01-25 19:54:00,57.1,57.1,30.09,West,274,0.0,0.0,100,0.00,OVC,,0.00,WeatherDisplay:10.37,2013-01-26 03:54:00,
2013-01-25 19:59:00,57.2,57.2,30.09,West,274,0.0,0.0,100,0.00,OVC,,0.00,WeatherDisplay:10.37,2013-01-26 03:59:00,
2013-01-25 20:04:00,57.4,57.4,30.09,West,278,0.8,2.3,100,0.00,OVC,,0.00,WeatherDisplay:10.37,2013-01-26 04:04:00,
2013-01-25 20:09:00,57.6,57.6,30.09,West,278,0.0,0.0,100,0.00,OVC,,0.00,WeatherDisplay:10.37,2013-01-26 04:09:00,
2013-01-25 20:14:00,57.8,57.8,30.09,NW,306,1.3,2.3,100,0.00,OVC,,0.00,WeatherDisplay:10.37,2013-01-26 04:14:00,
2013-01-25 20:19:00,57.9,57.9,30.09,West,275,0.1,1.4,100,0.00,BKN,,0.00,WeatherDisplay:10.37,2013-01-26 04:19:00,
2013-01-25 20:24:00,58.2,58.2,30.09,ENE,59,0.9,1.1,100,0.00,BKN,,0.00,WeatherDisplay:10.37,2013-01-26 04:24:00,
2013-01-25 20:29:00,57.8,57.8,30.08,ENE,69,0.0,0.0,100,0.00,BKN,,0.00,WeatherDisplay:10.37,2013-01-26 04:29:00,
2013-01-25 20:34:00,57.8,57.8,30.08,ENE,69,0.0,0.0,100,0.00,BKN,,0.00,WeatherDisplay:10.37,2013-01-26 04:34:00,
2013-01-25 20:39:00,57.1,57.1,30.09,ENE,69,0.0,0.0,100,0.00,BKN,,0.00,WeatherDisplay:10.37,2013-01-26 04:39:00,
2013-01-25 20:44:00,57.0,57.0,30.09,ENE,69,0.0,0.0,100,0.00,BKN,,0.00,WeatherDisplay:10.37,2013-01-26 04:44:00,
2013-01-25 20:49:00,56.7,56.7,30.09,ENE,69,0.0,0.0,100,0.00,BKN,,0.00,WeatherDisplay:10.37,2013-01-26 04:49:00,
2013-01-25 20:54:00,56.8,56.8,30.09,ENE,69,0.0,0.0,100,0.00,BKN,,0.00,WeatherDisplay:10.37,2013-01-26 04:54:00,
2013-01-25 20:59:00,56.4,56.4,30.09,ENE,69,0.0,0.0,100,0.00,BKN,,0.00,WeatherDisplay:10.37,2013-01-26 04:59:00,
2013-01-25 21:00:00,56.3,56.3,30.09,ENE,69,0.0,0.0,100,0.00,BKN,,0.00,WeatherDisplay:10.37,2013-01-26 05:00:00,
2013-01-25 21:03:00,56.4,56.4,30.09,ENE,69,0.0,0.0,100,0.00,BKN,,0.00,WeatherDisplay:10.37,2013-01-26 05:03:00,
2013-01-25 21:05:00,56.4,56.4,30.09,ENE,69,0.0,0.0,100,0.00,BKN,,0.00,WeatherDisplay:10.37,2013-01-26 05:05:00,
2013-01-25 21:10:00,55.9,55.9,30.09,ENE,69,0.0,0.0,100,0.00,BKN,,0.00,WeatherDisplay:10.37,2013-01-26 05:10:00,
2013-01-25 21:15:00,55.8,55.8,30.09,ENE,69,0.0,0.0,100,0.00,BKN,,0.00,WeatherDisplay:10.37,2013-01-26 05:15:00,
2013-01-25 21:20:00,55.4,55.4,30.09,ENE,69,0.0,0.0,100,0.00,SCT,,0.00,WeatherDisplay:10.37,2013-01-26 05:20:00,
2013-01-25 21:25:00,55.4,55.4,30.09,ENE,69,0.0,0.0,100,0.00,SCT,,0.00,WeatherDisplay:10.37,2013-01-26 05:25:00,
2013-01-25 21:30:00,55.0,55.0,30.09,ENE,69,0.0,0.0,100,0.00,SCT,,0.00,WeatherDisplay:10.37,2013-01-26 05:30:00,
2013-01-25 21:35:00,55.0,55.0,30.09,ENE,69,0.0,0.0,100,0.00,SCT,,0.00,WeatherDisplay:10.37,2013-01-26 05:35:00,
2013-01-25 21:40:00,54.7,54.7,30.09,ENE,69,0.0,0.0,100,0.00,SCT,,0.00,WeatherDisplay:10.37,2013-01-26 05:40:00,
2013-01-25 21:45:00,54.8,54.8,30.09,ENE,69,0.0,0.0,100,0.00,SCT,,0.00,WeatherDisplay:10.37,2013-01-26 05:45:00,
2013-01-25 21:50:00,54.5,54.5,30.09,ENE,69,0.0,0.0,100,0.00,SCT,,0.00,WeatherDisplay:10.37,2013-01-26 05:50:00,
2013-01-25 21:55:00,54.6,54.6,30.09,ENE,69,0.0,0.0,100,0.00,SCT,,0.00,WeatherDisplay:10.37,2013-01-26 05:55:00,
2013-01-25 22:00:00,54.6,54.6,30.09,ENE,69,0.0,0.0,100,0.00,SCT,,0.00,WeatherDisplay:10.37,2013-01-26 06:00:00,
2013-01-25 22:05:00,55.1,55.1,30.09,ENE,69,0.0,0.0,100,0.00,CLR,,0.00,WeatherDisplay:10.37,2013-01-26 06:05:00,
2013-01-25 22:10:00,54.5,54.5,30.09,ENE,69,0.0,0.0,100,0.00,CLR,,0.00,WeatherDisplay:10.37,2013-01-26 06:10:00,
2013-01-25 22:15:00,54.2,54.2,30.09,ENE,69,0.0,0.0,100,0.00,CLR,,0.00,WeatherDisplay:10.37,2013-01-26 06:15:00,
2013-01-25 22:20:00,54.4,54.4,30.09,West,264,1.2,2.3,100,0.00,CLR,,0.00,WeatherDisplay:10.37,2013-01-26 06:20:00,
2013-01-25 22:25:00,54.8,54.8,30.09,WSW,248,0.0,0.0,100,0.00,CLR,,0.00,WeatherDisplay:10.37,2013-01-26 06:25:00,
2013-01-25 22:30:00,54.8,54.8,30.09,WSW,248,0.0,0.0,100,0.00,CLR,,0.00,WeatherDisplay:10.37,2013-01-26 06:30:00,
2013-01-25 22:35:00,54.5,54.5,30.09,WSW,248,0.0,0.0,100,0.00,CLR,,0.00,WeatherDisplay:10.37,2013-01-26 06:35:00,
2013-01-25 22:40:00,54.8,54.8,30.09,WSW,248,0.0,0.0,100,0.00,CLR,,0.00,WeatherDisplay:10.37,2013-01-26 06:40:00,
2013-01-25 22:45:00,54.9,54.9,30.09,South,174,1.5,2.3,100,0.00,CLR,,0.00,WeatherDisplay:10.37,2013-01-26 06:45:00,
2013-01-25 22:50:00,54.8,54.8,30.09,SSE,164,0.0,0.0,100,0.00,CLR,,0.00,WeatherDisplay:10.37,2013-01-26 06:50:00,
2013-01-25 22:55:00,54.4,54.4,30.09,SSE,164,0.0,0.0,100,0.00,CLR,,0.00,WeatherDisplay:10.37,2013-01-26 06:55:00,
2013-01-25 23:00:00,54.6,54.6,30.09,SSE,164,0.0,0.0,100,0.00,CLR,,0.00,WeatherDisplay:10.37,2013-01-26 07:00:00,
2013-01-25 23:05:00,54.4,54.4,30.09,SSE,164,0.0,0.0,100,0.00,BKN,,0.00,WeatherDisplay:10.37,2013-01-26 07:05:00,
2013-01-25 23:10:00,54.0,54.0,30.09,SSE,164,0.0,0.0,100,0.00,BKN,,0.00,WeatherDisplay:10.37,2013-01-26 07:10:00,
2013-01-25 23:15:00,53.9,53.9,30.09,SSE,164,0.0,0.0,100,0.00,BKN,,0.00,WeatherDisplay:10.37,2013-01-26 07:15:00,
2013-01-25 23:20:00,53.9,53.9,30.09,WSW,256,0.3,1.1,100,0.00,BKN,,0.00,WeatherDisplay:10.37,2013-01-26 07:20:00,
2013-01-25 23:25:00,54.1,54.1,30.09,WSW,248,0.0,0.0,100,0.00,BKN,,0.00,WeatherDisplay:10.37,2013-01-26 07:25:00,
2013-01-25 23:30:00,54.1,54.1,30.09,WSW,251,0.0,0.0,100,0.00,BKN,,0.00,WeatherDisplay:10.37,2013-01-26 07:30:00,
2013-01-25 23:35:00,54.0,54.0,30.09,WSW,251,0.0,0.0,100,0.00,BKN,,0.00,WeatherDisplay:10.37,2013-01-26 07:35:00,
2013-01-25 23:40:00,53.9,53.9,30.09,WSW,251,0.0,0.0,100,0.00,BKN,,0.00,WeatherDisplay:10.37,2013-01-26 07:40:00,
2013-01-25 23:45:00,53.6,53.6,30.09,WSW,251,0.0,0.0,100,0.00,BKN,,0.00,WeatherDisplay:10.37,2013-01-26 07:45:00,
2013-01-25 23:50:00,53.4,53.4,30.08,WSW,251,0.0,0.0,100,0.00,BKN,,0.00,WeatherDisplay:10.37,2013-01-26 07:50:00,
2013-01-25 23:55:00,53.0,53.0,30.08,WSW,251,0.0,0.0,100,0.00,BKN,,0.00,WeatherDisplay:10.37,2013-01-26 07:55:00,